createdAt,value
2023-11-08T00:01:30.516Z,66.43
2023-11-08T00:03:58.000Z,66.44
2023-11-08T00:06:25.468Z,66.24
2023-11-08T00:08:53.072Z,66.20
2023-11-08T00:11:24.854Z,66.55
2023-11-08T00:13:52.721Z,66.83
2023-11-08T00:16:20.158Z,67.17
2023-11-08T00:18:47.607Z,67.10
2023-11-08T00:21:15.192Z,67.19
2023-11-08T00:23:42.730Z,67.49
2023-11-08T00:26:12.164Z,67.78
2023-11-08T00:28:40.515Z,67.97
2023-11-08T00:31:08.693Z,67.72
2023-11-08T00:33:36.176Z,67.51
2023-11-08T00:36:03.998Z,67.71
2023-11-08T00:38:31.348Z,68.00
2023-11-08T00:40:59.273Z,68.22
2023-11-08T00:43:26.880Z,68.54
2023-11-08T00:45:54.983Z,68.54
2023-11-08T00:48:24.960Z,68.22
2023-11-08T00:50:54.854Z,68.43
2023-11-08T00:53:23.013Z,68.78
2023-11-08T00:55:50.900Z,69.00
2023-11-08T00:58:18.341Z,68.63
2023-11-08T01:00:46.202Z,68.63
2023-11-08T01:03:14.472Z,68.89
2023-11-08T01:05:42.427Z,69.33
2023-11-08T01:08:13.262Z,69.58
2023-11-08T01:10:44.409Z,69.32
2023-11-08T01:13:14.361Z,69.18
2023-11-08T01:15:41.817Z,69.39
2023-11-08T01:18:09.853Z,69.54
2023-11-08T01:20:38.592Z,69.75
2023-11-08T01:23:05.974Z,69.65
2023-11-08T01:25:33.554Z,69.42
2023-11-08T01:28:01.312Z,69.63
2023-11-08T01:30:28.844Z,69.85
2023-11-08T01:32:58.679Z,70.06
2023-11-08T01:35:26.368Z,69.84
2023-11-08T01:37:53.770Z,69.59
2023-11-08T01:40:22.336Z,69.91
2023-11-08T01:42:49.775Z,70.16
2023-11-08T01:45:18.007Z,70.18
2023-11-08T01:47:45.742Z,69.86
2023-11-08T01:50:13.227Z,69.57
2023-11-08T01:52:40.655Z,69.75
2023-11-08T01:55:08.825Z,70.03
2023-11-08T01:57:37.127Z,70.46
2023-11-08T02:00:06.619Z,70.20
2023-11-08T02:02:40.810Z,70.01
2023-11-08T02:05:08.765Z,70.28
2023-11-08T02:09:06.462Z,71.70
2023-11-08T02:11:34.478Z,70.48
2023-11-08T02:14:02.966Z,69.88
2023-11-08T02:16:33.925Z,69.97
2023-11-08T02:19:01.413Z,70.29
2023-11-08T02:21:28.938Z,70.40
2023-11-08T02:23:56.510Z,70.20
2023-11-08T02:26:24.073Z,69.83
2023-11-08T02:28:51.943Z,70.12
2023-11-08T02:31:19.602Z,70.34
2023-11-08T02:33:47.063Z,70.47
2023-11-08T02:36:15.449Z,70.26
2023-11-08T02:38:43.057Z,69.89
2023-11-08T02:41:10.479Z,69.96
2023-11-08T02:43:37.902Z,70.29
2023-11-08T02:46:05.693Z,70.64
2023-11-08T02:48:33.824Z,70.28
2023-11-08T02:51:02.027Z,69.90
2023-11-08T02:53:30.228Z,70.05
2023-11-08T02:55:58.126Z,70.30
2023-11-08T02:58:25.470Z,70.49
2023-11-08T03:00:56.063Z,70.25
2023-11-08T03:03:23.673Z,69.92
2023-11-08T03:05:51.845Z,70.08
2023-11-08T03:08:19.888Z,70.15
2023-11-08T03:10:47.362Z,70.25
2023-11-08T03:13:16.177Z,70.04
2023-11-08T03:15:43.892Z,69.53
2023-11-08T03:18:11.416Z,69.57
2023-11-08T03:20:40.348Z,69.71
2023-11-08T03:23:08.282Z,69.76
2023-11-08T03:25:35.703Z,69.35
2023-11-08T03:28:03.517Z,69.17
2023-11-08T03:30:31.006Z,69.24
2023-11-08T03:32:59.434Z,69.39
2023-11-08T03:35:26.937Z,69.47
2023-11-08T03:37:56.342Z,69.13
2023-11-08T03:40:23.737Z,68.79
2023-11-08T03:42:51.495Z,68.82
2023-11-08T03:45:18.998Z,68.99
2023-11-08T03:47:46.394Z,69.09
2023-11-08T03:50:13.880Z,68.80
2023-11-08T03:52:41.311Z,68.63
2023-11-08T03:55:09.570Z,68.90
2023-11-08T03:57:37.379Z,69.32
2023-11-08T04:00:06.154Z,69.68
2023-11-08T04:02:37.804Z,69.45
2023-11-08T04:05:05.542Z,69.32
2023-11-08T04:07:33.054Z,69.57
2023-11-08T04:10:00.523Z,69.74
2023-11-08T04:12:28.384Z,70.06
2023-11-08T04:14:55.918Z,70.16
2023-11-08T04:17:23.379Z,69.69
2023-11-08T04:19:50.950Z,69.68
2023-11-08T04:22:19.158Z,69.83
2023-11-08T04:24:46.722Z,70.00
2023-11-08T04:27:14.335Z,70.15
2023-11-08T04:29:43.269Z,69.88
2023-11-08T04:32:10.813Z,69.60
2023-11-08T04:34:38.321Z,69.90
2023-11-08T04:37:10.941Z,70.26
2023-11-08T04:39:38.825Z,70.38
2023-11-08T04:42:07.350Z,70.13
2023-11-08T04:44:35.250Z,69.97
2023-11-08T04:47:03.088Z,70.20
2023-11-08T04:49:30.559Z,70.36
2023-11-08T04:51:58.042Z,70.57
2023-11-08T04:54:26.116Z,70.23
2023-11-08T04:56:54.376Z,70.08
2023-11-08T04:59:21.742Z,70.29
2023-11-08T05:01:49.296Z,70.54
2023-11-08T05:04:16.695Z,70.72
2023-11-08T05:06:44.230Z,70.35
2023-11-08T05:09:16.701Z,70.10
2023-11-08T05:11:44.428Z,70.31
2023-11-08T05:14:12.907Z,70.55
2023-11-08T05:16:40.984Z,70.84
2023-11-08T05:19:08.659Z,70.43
2023-11-08T05:21:36.247Z,70.14
2023-11-08T05:24:03.768Z,70.31
2023-11-08T05:26:31.101Z,70.48
2023-11-08T05:28:58.447Z,70.69
2023-11-08T05:31:25.866Z,70.15
2023-11-08T05:33:54.244Z,69.78
2023-11-08T05:36:21.698Z,70.06
2023-11-08T05:38:49.230Z,70.40
2023-11-08T05:41:20.650Z,70.65
2023-11-08T05:43:48.166Z,70.37
2023-11-08T05:46:15.596Z,70.28
2023-11-08T05:48:43.246Z,70.59
2023-11-08T05:51:10.620Z,70.79
2023-11-08T05:53:39.012Z,70.92
2023-11-08T05:56:07.812Z,70.89
2023-11-08T05:58:36.929Z,70.81
2023-11-08T06:01:06.122Z,70.99
2023-11-08T06:03:33.548Z,71.38
2023-11-08T06:06:01.134Z,71.85
2023-11-08T06:08:28.557Z,71.71
2023-11-08T06:10:55.953Z,71.81
2023-11-08T06:13:23.871Z,72.13
2023-11-08T06:15:51.413Z,72.48
2023-11-08T06:18:21.888Z,72.81
2023-11-08T06:20:49.547Z,72.98
2023-11-08T06:23:16.989Z,73.20
2023-11-08T06:25:45.237Z,73.73
2023-11-08T06:28:12.989Z,74.51
2023-11-08T06:30:40.728Z,75.13
2023-11-08T06:33:09.142Z,74.66
2023-11-08T06:35:39.023Z,74.21
2023-11-08T06:38:06.431Z,74.16
2023-11-08T06:40:33.774Z,74.56
2023-11-08T06:43:01.299Z,74.42
2023-11-08T06:45:28.714Z,74.15
2023-11-08T06:47:56.191Z,73.88
2023-11-08T06:50:23.654Z,74.17
2023-11-08T06:52:51.007Z,74.67
2023-11-08T06:55:23.325Z,74.88
2023-11-08T06:58:03.331Z,74.64
2023-11-08T07:00:30.924Z,74.60
2023-11-08T07:02:58.562Z,74.97
2023-11-08T07:05:30.405Z,75.52
2023-11-08T07:08:04.223Z,75.37
2023-11-08T07:10:31.674Z,75.41
2023-11-08T07:12:59.175Z,75.85
2023-11-08T07:15:28.076Z,76.39
2023-11-08T07:17:55.691Z,76.38
2023-11-08T07:20:23.658Z,76.23
2023-11-08T07:22:51.092Z,76.65
2023-11-08T07:25:19.180Z,77.17
2023-11-08T07:27:46.635Z,76.92
2023-11-08T07:30:16.191Z,76.98
2023-11-08T07:32:47.372Z,77.29
2023-11-08T07:35:15.131Z,77.70
2023-11-08T07:37:42.555Z,78.07
2023-11-08T07:40:13.862Z,78.07
2023-11-08T07:42:42.068Z,78.52
2023-11-08T07:45:10.577Z,79.02
2023-11-08T07:47:38.224Z,79.21
2023-11-08T07:50:07.779Z,78.84
2023-11-08T07:52:35.310Z,78.82
2023-11-08T07:55:02.887Z,79.66
2023-11-08T07:57:30.369Z,80.58
2023-11-08T07:59:57.791Z,80.33
2023-11-08T08:02:25.270Z,80.20
2023-11-08T08:04:55.379Z,80.59
2023-11-08T08:07:22.959Z,80.98
2023-11-08T08:09:50.443Z,80.77
2023-11-08T08:12:17.884Z,80.57
2023-11-08T08:14:45.303Z,80.72
2023-11-08T08:17:14.104Z,80.93
2023-11-08T08:19:42.377Z,79.97
2023-11-08T08:22:10.024Z,79.70
2023-11-08T08:24:37.710Z,79.97
2023-11-08T08:27:05.489Z,79.70
2023-11-08T08:29:33.311Z,79.14
2023-11-08T08:32:00.777Z,78.64
2023-11-08T08:34:31.616Z,79.61
2023-11-08T08:37:00.051Z,79.79
2023-11-08T08:39:29.821Z,79.32
2023-11-08T08:41:58.307Z,78.67
2023-11-08T08:44:25.763Z,79.02
2023-11-08T08:46:53.460Z,79.48
2023-11-08T08:49:23.005Z,79.30
2023-11-08T08:51:51.367Z,79.10
2023-11-08T08:54:22.782Z,79.00
2023-11-08T08:56:50.843Z,78.95
2023-11-08T08:59:18.261Z,79.12
2023-11-08T09:01:45.774Z,79.48
2023-11-08T09:04:13.600Z,79.18
2023-11-08T09:06:41.266Z,79.51
2023-11-08T09:09:14.515Z,80.09
2023-11-08T09:11:42.225Z,80.39
2023-11-08T09:14:10.113Z,80.42
2023-11-08T09:16:39.589Z,80.83
2023-11-08T09:19:11.476Z,82.02
2023-11-08T09:21:39.370Z,82.15
2023-11-08T09:24:08.130Z,81.97
2023-11-08T09:26:41.655Z,82.55
2023-11-08T09:29:09.484Z,83.50
2023-11-08T09:31:38.479Z,84.58
2023-11-08T09:34:06.096Z,83.88
2023-11-08T09:36:34.271Z,83.33
2023-11-08T09:39:02.327Z,84.25
2023-11-08T09:41:29.957Z,85.09
2023-11-08T09:43:57.525Z,86.18
2023-11-08T09:46:26.223Z,86.52
2023-11-08T09:48:55.846Z,86.86
2023-11-08T09:51:23.464Z,87.58
2023-11-08T09:53:51.436Z,87.12
2023-11-08T09:56:18.882Z,86.73
2023-11-08T09:58:49.319Z,86.72
2023-11-08T10:01:17.426Z,86.68
2023-11-08T10:03:45.771Z,86.05
2023-11-08T10:06:13.688Z,85.83
2023-11-08T10:08:41.240Z,85.76
2023-11-08T10:11:08.730Z,86.06
2023-11-08T10:13:49.954Z,86.41
2023-11-08T10:16:18.644Z,86.59
2023-11-08T10:19:36.064Z,87.61
2023-11-08T10:21:50.604Z,87.43
2023-11-08T10:24:18.491Z,87.57
2023-11-08T10:26:47.585Z,87.96
2023-11-08T10:29:15.653Z,88.15
2023-11-08T10:31:43.538Z,88.87
2023-11-08T10:34:12.610Z,89.41
2023-11-08T10:36:40.838Z,89.53
2023-11-08T10:39:16.803Z,89.86
2023-11-08T10:41:45.049Z,90.39
2023-11-08T10:44:23.454Z,90.61
2023-11-08T10:47:02.141Z,89.71
2023-11-08T10:49:29.615Z,89.87
2023-11-08T10:51:58.265Z,89.85
2023-11-08T10:54:26.265Z,89.01
2023-11-08T10:56:53.818Z,88.90
2023-11-08T10:59:21.389Z,89.98
2023-11-08T11:01:48.932Z,91.51
2023-11-08T11:04:16.955Z,92.65
2023-11-08T11:06:44.758Z,93.67
2023-11-08T11:09:12.504Z,93.31
2023-11-08T11:11:43.906Z,93.17
2023-11-08T11:14:38.980Z,93.43
2023-11-08T11:17:31.439Z,93.98
2023-11-08T11:20:02.282Z,93.71
2023-11-08T11:22:29.722Z,92.90
2023-11-08T11:24:58.507Z,91.84
2023-11-08T11:27:35.317Z,91.13
2023-11-08T11:30:15.388Z,89.97
2023-11-08T11:32:48.348Z,91.06
2023-11-08T11:35:19.936Z,91.91
2023-11-08T11:38:11.593Z,92.28
2023-11-08T11:40:49.938Z,91.74
2023-11-08T11:43:33.779Z,91.51
2023-11-08T11:46:03.376Z,91.94
2023-11-08T11:48:34.846Z,89.62
2023-11-08T11:51:03.255Z,88.81
2023-11-08T11:53:31.663Z,88.99
2023-11-08T11:56:06.645Z,89.21
2023-11-08T11:58:34.114Z,89.10
2023-11-08T12:01:01.647Z,89.77
2023-11-08T12:03:29.166Z,90.72
2023-11-08T12:05:56.833Z,91.34
2023-11-08T12:08:25.348Z,93.05
2023-11-08T12:10:52.787Z,94.38
2023-11-08T12:13:20.221Z,94.13
2023-11-08T12:16:00.618Z,95.73
2023-11-08T12:18:28.200Z,96.84
2023-11-08T12:20:55.644Z,98.28
2023-11-08T12:23:23.513Z,97.73
2023-11-08T12:25:51.820Z,97.88
2023-11-08T12:28:19.210Z,98.82
2023-11-08T12:30:47.372Z,98.89
2023-11-08T12:33:15.633Z,98.45
2023-11-08T12:35:43.662Z,98.40
2023-11-08T12:38:11.115Z,97.78
2023-11-08T12:40:38.680Z,98.31
2023-11-08T12:43:56.796Z,99.23
2023-11-08T12:46:36.141Z,99.32
2023-11-08T12:49:01.593Z,98.61
2023-11-08T12:51:31.021Z,97.77
2023-11-08T12:53:58.547Z,97.81
2023-11-08T12:56:25.975Z,97.74
2023-11-08T12:58:53.419Z,97.22
2023-11-08T13:01:21.063Z,97.08
2023-11-08T13:03:48.702Z,96.41
2023-11-08T13:06:16.151Z,95.85
2023-11-08T13:08:53.885Z,95.12
2023-11-08T13:11:21.363Z,95.18
2023-11-08T13:13:49.111Z,95.47
2023-11-08T13:16:16.564Z,94.94
2023-11-08T13:18:44.329Z,95.25
2023-11-08T13:21:11.765Z,95.37
2023-11-08T13:24:01.576Z,96.23
2023-11-08T13:26:26.869Z,97.22
2023-11-08T13:28:54.314Z,99.82
2023-11-08T13:31:21.747Z,100.00
2023-11-08T13:33:49.567Z,100.00
2023-11-08T13:36:17.287Z,100.00
2023-11-08T13:38:44.734Z,100.00
2023-11-08T13:41:12.249Z,100.00
2023-11-08T13:43:39.776Z,100.00
2023-11-08T13:46:08.996Z,100.00
2023-11-08T13:48:36.985Z,100.00
2023-11-08T13:51:07.968Z,100.00
2023-11-08T13:53:35.898Z,100.00
2023-11-08T13:56:04.118Z,100.00
2023-11-08T13:58:34.930Z,100.00
2023-11-08T14:01:08.857Z,100.00
2023-11-08T14:03:37.487Z,100.00
2023-11-08T14:06:07.632Z,100.00
2023-11-08T14:08:35.517Z,100.00
2023-11-08T14:11:03.166Z,100.00
2023-11-08T14:13:30.714Z,100.00
2023-11-08T14:15:58.265Z,100.00
2023-11-08T14:18:25.899Z,100.00
2023-11-08T14:20:56.065Z,100.00
2023-11-08T14:23:23.626Z,100.00
2023-11-08T14:26:51.989Z,100.00
2023-11-08T14:29:27.705Z,100.00
2023-11-08T14:32:01.511Z,100.00
2023-11-08T14:34:31.955Z,100.00
2023-11-08T14:36:59.801Z,99.95
2023-11-08T14:39:27.349Z,100.00
2023-11-08T14:41:54.773Z,99.95
2023-11-08T14:44:22.321Z,100.00
2023-11-08T14:46:50.063Z,99.63
2023-11-08T14:49:17.635Z,98.82
2023-11-08T14:51:48.808Z,98.23
2023-11-08T14:54:16.911Z,98.22
2023-11-08T14:56:44.401Z,98.37
2023-11-08T14:59:11.886Z,98.56
2023-11-08T15:01:39.447Z,98.71
2023-11-08T15:04:09.496Z,99.54
2023-11-08T15:06:37.381Z,99.61
2023-11-08T15:09:51.953Z,99.38
2023-11-08T15:11:52.934Z,99.38
2023-11-08T15:14:21.186Z,99.87
2023-11-08T15:16:48.712Z,100.00
2023-11-08T15:19:16.190Z,100.00
2023-11-08T15:21:43.826Z,100.00
2023-11-08T15:24:11.386Z,100.00
2023-11-08T15:26:39.255Z,100.00
2023-11-08T15:29:06.826Z,100.00
2023-11-08T15:31:34.350Z,99.74
2023-11-08T15:34:02.415Z,99.88
2023-11-08T15:36:29.913Z,99.94
2023-11-08T15:38:57.406Z,99.58
2023-11-08T15:41:25.170Z,99.73
2023-11-08T15:43:53.719Z,99.61
2023-11-08T15:46:22.124Z,98.29
2023-11-08T15:48:50.329Z,99.26
2023-11-08T15:51:18.423Z,99.44
2023-11-08T15:53:46.220Z,99.95
2023-11-08T15:56:14.386Z,100.00
2023-11-08T15:58:42.044Z,100.00
2023-11-08T16:01:09.575Z,100.00
2023-11-08T16:03:37.918Z,100.00
2023-11-08T16:06:05.797Z,100.00
2023-11-08T16:08:33.635Z,99.77
2023-11-08T16:11:01.117Z,99.82
2023-11-08T16:13:28.662Z,99.74
2023-11-08T16:15:56.242Z,99.86
2023-11-08T16:18:24.794Z,99.40
2023-11-08T16:20:52.445Z,98.81
2023-11-08T16:23:21.399Z,98.98
2023-11-08T16:25:49.287Z,97.27
2023-11-08T16:28:16.936Z,99.08
2023-11-08T16:31:00.800Z,99.97
2023-11-08T16:33:34.354Z,100.00
2023-11-08T16:36:02.466Z,100.00
2023-11-08T16:38:30.030Z,100.00
2023-11-08T16:40:58.058Z,100.00
2023-11-08T16:45:59.327Z,100.00
2023-11-08T16:48:27.367Z,100.00
2023-11-08T16:50:54.838Z,100.00
2023-11-08T16:53:22.382Z,100.00
2023-11-08T16:55:49.815Z,100.00
2023-11-08T16:58:19.175Z,100.00
2023-11-08T17:00:47.987Z,100.00
2023-11-08T17:03:17.837Z,100.00
2023-11-08T17:05:45.964Z,100.00
2023-11-08T17:08:13.707Z,100.00
2023-11-08T17:10:41.188Z,100.00
2023-11-08T17:13:10.869Z,100.00
2023-11-08T17:15:41.019Z,100.00
2023-11-08T17:18:09.069Z,100.00
2023-11-08T17:20:36.583Z,100.00
2023-11-08T17:23:04.086Z,100.00
2023-11-08T17:25:31.511Z,100.00
2023-11-08T17:27:59.359Z,100.00
2023-11-08T17:30:26.913Z,100.00
2023-11-08T17:32:55.392Z,100.00
2023-11-08T17:35:22.923Z,100.00
2023-11-08T17:37:50.559Z,100.00
2023-11-08T17:40:18.490Z,100.00
2023-11-08T17:42:46.023Z,100.00
2023-11-08T17:45:13.648Z,100.00
2023-11-08T17:47:42.304Z,100.00
2023-11-08T17:50:10.816Z,100.00
2023-11-08T17:52:38.311Z,100.00
2023-11-08T17:55:06.234Z,100.00
2023-11-08T17:57:33.717Z,100.00
2023-11-08T18:00:01.319Z,100.00
2023-11-08T18:02:32.105Z,100.00
2023-11-08T18:05:00.862Z,100.00
2023-11-08T18:07:28.355Z,100.00
2023-11-08T18:09:56.735Z,100.00
2023-11-08T18:12:24.586Z,100.00
2023-11-08T18:14:51.987Z,100.00
2023-11-08T18:17:19.475Z,100.00
2023-11-08T18:19:47.347Z,100.00
2023-11-08T18:22:15.139Z,100.00
2023-11-08T18:24:42.563Z,100.00
2023-11-08T18:27:10.149Z,100.00
2023-11-08T18:29:37.603Z,100.00
2023-11-08T18:32:05.071Z,100.00
2023-11-08T18:34:32.592Z,100.00
2023-11-08T18:37:00.161Z,100.00
2023-11-08T18:39:27.698Z,100.00
2023-11-08T18:41:55.222Z,100.00
2023-11-08T18:44:23.151Z,100.00
2023-11-08T18:46:52.157Z,100.00
2023-11-08T18:49:19.725Z,100.00
2023-11-08T18:51:48.222Z,100.00
2023-11-08T18:54:15.797Z,100.00
2023-11-08T18:56:43.795Z,100.00
2023-11-08T18:59:13.479Z,100.00
2023-11-08T19:01:41.426Z,100.00
2023-11-08T19:04:09.757Z,100.00
2023-11-08T19:06:42.085Z,100.00
2023-11-08T19:09:09.603Z,100.00
2023-11-08T19:11:37.014Z,100.00
2023-11-08T19:14:04.652Z,100.00
2023-11-08T19:16:32.319Z,100.00
2023-11-08T19:19:00.042Z,100.00
2023-11-08T19:21:28.634Z,100.00
2023-11-08T19:23:56.320Z,100.00
2023-11-08T19:26:23.949Z,100.00
2023-11-08T19:28:52.568Z,100.00
2023-11-08T19:31:20.284Z,100.00
2023-11-08T19:33:47.859Z,100.00
2023-11-08T19:36:15.372Z,100.00
2023-11-08T19:38:43.838Z,100.00
2023-11-08T19:41:12.164Z,100.00
2023-11-08T19:43:39.680Z,100.00
2023-11-08T19:46:08.145Z,100.00
2023-11-08T19:48:35.634Z,100.00
2023-11-08T19:51:03.228Z,100.00
2023-11-08T19:53:31.815Z,100.00
2023-11-08T19:56:06.501Z,100.00
2023-11-08T19:58:34.640Z,100.00
2023-11-08T20:01:03.354Z,100.00
2023-11-08T20:03:30.768Z,100.00
2023-11-08T20:05:58.606Z,100.00
2023-11-08T20:08:26.184Z,100.00
2023-11-08T20:10:54.488Z,100.00
2023-11-08T20:13:22.803Z,100.00
2023-11-08T20:15:50.334Z,100.00
2023-11-08T20:18:17.862Z,100.00
2023-11-08T20:20:46.773Z,100.00
2023-11-08T20:23:14.192Z,100.00
2023-11-08T20:25:41.896Z,100.00
2023-11-08T20:28:10.176Z,100.00
2023-11-08T20:30:38.267Z,100.00
2023-11-08T20:33:07.000Z,100.00
2023-11-08T20:35:35.193Z,100.00
2023-11-08T20:38:03.313Z,100.00
2023-11-08T20:40:30.815Z,100.00
2023-11-08T20:42:58.578Z,100.00
2023-11-08T20:45:26.256Z,100.00
2023-11-08T20:47:53.762Z,100.00
2023-11-08T20:50:22.597Z,100.00
2023-11-08T20:52:50.043Z,100.00
2023-11-08T20:55:17.564Z,100.00
2023-11-08T20:57:45.734Z,100.00
2023-11-08T21:00:14.551Z,100.00
2023-11-08T21:02:42.395Z,100.00
2023-11-08T21:05:10.415Z,100.00
2023-11-08T21:07:37.782Z,100.00
2023-11-08T21:10:06.433Z,100.00
2023-11-08T21:12:33.937Z,100.00
2023-11-08T21:15:01.442Z,100.00
2023-11-08T21:17:28.868Z,100.00
2023-11-08T21:19:56.354Z,100.00
2023-11-08T21:22:23.941Z,100.00
2023-11-08T21:24:51.411Z,100.00
2023-11-08T21:27:18.905Z,100.00
2023-11-08T21:29:46.433Z,100.00
2023-11-08T21:32:14.375Z,100.00
2023-11-08T21:34:43.662Z,100.00
2023-11-08T21:37:12.302Z,100.00
2023-11-08T21:39:42.218Z,100.00
2023-11-08T21:42:09.676Z,100.00
2023-11-08T21:44:37.030Z,100.00
2023-11-08T21:47:05.935Z,100.00
2023-11-08T21:49:34.146Z,100.00
2023-11-08T21:52:01.754Z,100.00
2023-11-08T21:54:29.510Z,100.00
2023-11-08T21:56:56.969Z,100.00
2023-11-08T21:59:24.564Z,100.00
2023-11-08T22:01:51.953Z,100.00
2023-11-08T22:04:19.395Z,100.00
2023-11-08T22:06:46.945Z,100.00
2023-11-08T22:09:14.381Z,100.00
2023-11-08T22:11:42.236Z,100.00
2023-11-08T22:14:09.690Z,100.00
2023-11-08T22:16:40.501Z,100.00
2023-11-08T22:19:09.986Z,100.00
2023-11-08T22:21:42.623Z,100.00
2023-11-08T22:24:11.090Z,100.00
2023-11-08T22:26:38.459Z,100.00
2023-11-08T22:29:06.748Z,100.00
2023-11-08T22:31:36.145Z,100.00
2023-11-08T22:34:03.948Z,100.00
2023-11-08T22:36:33.278Z,100.00
2023-11-08T22:39:02.209Z,100.00
2023-11-08T22:41:29.813Z,100.00
2023-11-08T22:43:57.218Z,100.00
2023-11-08T22:46:31.690Z,100.00
2023-11-08T22:48:59.643Z,100.00
2023-11-08T22:51:28.407Z,100.00
2023-11-08T22:53:55.884Z,100.00
2023-11-08T22:56:24.180Z,100.00
2023-11-08T22:58:51.679Z,100.00
2023-11-08T23:01:33.896Z,100.00
2023-11-08T23:04:04.893Z,100.00
2023-11-08T23:06:32.828Z,100.00
2023-11-08T23:09:03.832Z,100.00
2023-11-08T23:11:32.281Z,100.00
2023-11-08T23:14:00.115Z,100.00
2023-11-08T23:16:28.354Z,100.00
2023-11-08T23:18:56.150Z,100.00
2023-11-08T23:21:23.800Z,100.00
2023-11-08T23:23:52.719Z,100.00
2023-11-08T23:26:20.541Z,100.00
2023-11-08T23:28:48.024Z,100.00
2023-11-08T23:31:15.567Z,100.00
2023-11-08T23:33:43.115Z,100.00
2023-11-08T23:36:13.604Z,100.00
2023-11-08T23:38:44.794Z,100.00
2023-11-08T23:41:12.139Z,100.00
2023-11-08T23:43:39.871Z,100.00
2023-11-08T23:46:07.407Z,100.00
2023-11-08T23:48:34.939Z,100.00
2023-11-08T23:51:02.513Z,100.00
2023-11-08T23:53:29.928Z,100.00
2023-11-08T23:55:58.672Z,100.00
2023-11-08T23:58:26.003Z,100.00
